Time;durP1;ratioP1;P1;durP2;ratioP2;P2;SDS_P1;SDS_P2;PMS_P1;PMS_P2;Temp;Humidity;BMP_temperature;BMP_pressure;BME280_temperature;BME280_humidity;BME280_pressure;Samples;Min_cycle;Max_cycle;Signal;HPM_P1;HPM_P2
2023/10/08 00:01:44;;;;;;;14.60;8.17;;;;;;;17.20;50.92;99736.19;5071442;28;20196;-68
2023/10/08 00:04:11;;;;;;;14.07;7.77;;;;;;;17.17;50.50;99736.63;5071998;28;20196;-66
2023/10/08 00:06:38;;;;;;;13.87;8.30;;;;;;;17.11;50.62;99734.91;5070741;28;21036;-67
2023/10/08 00:09:07;;;;;;;13.67;8.17;;;;;;;17.03;50.24;99735.25;5071824;28;20220;-66
2023/10/08 00:11:37;;;;;;;13.63;7.67;;;;;;;16.95;50.29;99732.88;5071929;28;20227;-67
2023/10/08 00:14:09;;;;;;;22.47;9.37;;;;;;;16.88;50.43;99724.94;5071544;28;20200;-66
2023/10/08 00:16:39;;;;;;;12.83;7.73;;;;;;;16.85;50.65;99724.56;5070911;28;20184;-67
2023/10/08 00:19:09;;;;;;;13.57;8.37;;;;;;;16.82;50.89;99717.00;5071988;28;20193;-66
2023/10/08 00:21:37;;;;;;;16.63;8.17;;;;;;;16.77;50.97;99708.81;5051584;28;20367;-67
2023/10/08 00:24:06;;;;;;;16.33;8.37;;;;;;;16.64;51.22;99703.66;5052012;28;20207;-66
2023/10/08 00:26:35;;;;;;;15.20;8.50;;;;;;;16.39;51.69;99697.59;5051607;28;20203;-68
2023/10/08 00:29:15;;;;;;;14.87;7.87;;;;;;;16.42;51.35;99699.88;5052974;28;20227;-67
2023/10/08 00:31:44;;;;;;;13.83;8.47;;;;;;;16.35;51.63;99702.63;5071711;28;20257;-68
2023/10/08 00:34:13;;;;;;;13.53;8.43;;;;;;;16.36;51.35;99700.72;5071348;28;20203;-67
2023/10/08 00:36:41;;;;;;;13.77;8.13;;;;;;;16.36;51.45;99698.06;5071602;28;20230;-67
2023/10/08 00:39:13;;;;;;;14.63;7.90;;;;;;;16.31;51.36;99703.28;5071575;28;20267;-68
2023/10/08 00:41:44;;;;;;;15.90;8.63;;;;;;;16.22;52.05;99699.28;5071281;28;20183;-68
2023/10/08 00:44:13;;;;;;;12.63;7.67;;;;;;;16.37;51.66;99702.38;5072028;28;20267;-67
2023/10/08 00:46:47;;;;;;;15.50;7.70;;;;;;;16.40;51.39;99710.78;5071362;28;20606;-67
2023/10/08 00:49:25;;;;;;;9.60;6.90;;;;;;;16.44;51.40;99705.81;5071494;28;20242;-67
2023/10/08 00:52:03;;;;;;;17.10;7.97;;;;;;;16.54;51.26;99706.88;5071461;28;20185;-67
2023/10/08 00:54:32;;;;;;;14.83;7.43;;;;;;;16.61;50.80;99704.13;5071637;28;20191;-68
2023/10/08 00:57:04;;;;;;;9.50;7.50;;;;;;;16.72;50.99;99698.78;5075514;28;20249;-68
2023/10/08 00:59:41;;;;;;;12.83;7.30;;;;;;;16.82;50.96;99695.53;5074362;28;20234;-67
2023/10/08 01:02:14;;;;;;;10.97;7.50;;;;;;;16.89;51.24;99698.91;5075321;28;20233;-68
2023/10/08 01:04:43;;;;;;;13.50;7.90;;;;;;;16.93;51.38;99695.53;5075013;28;20640;-68
2023/10/08 01:07:15;;;;;;;11.97;7.10;;;;;;;16.97;51.45;99698.56;5074214;28;20216;-68
2023/10/08 01:09:43;;;;;;;10.47;6.37;;;;;;;16.88;50.87;99687.38;5074307;28;20673;-68
2023/10/08 01:12:15;;;;;;;10.53;7.60;;;;;;;16.71;50.80;99685.59;5074758;28;20260;-69
2023/10/08 01:14:43;;;;;;;10.57;6.73;;;;;;;16.62;50.79;99689.66;5074106;28;20651;-69
2023/10/08 01:17:13;;;;;;;12.10;6.07;;;;;;;16.60;50.71;99681.00;5074636;28;20234;-68
2023/10/08 01:19:42;;;;;;;10.20;5.93;;;;;;;16.53;51.03;99675.75;5067865;28;20194;-68
2023/10/08 01:22:17;;;;;;;8.90;5.60;;;;;;;16.55;51.02;99678.22;5074725;28;20537;-68
2023/10/08 01:24:45;;;;;;;8.17;5.90;;;;;;;16.70;50.99;99676.72;5073744;28;20634;-68
2023/10/08 01:27:12;;;;;;;7.30;5.77;;;;;;;16.82;50.67;99684.81;5074394;28;20202;-68
2023/10/08 01:29:39;;;;;;;6.30;5.10;;;;;;;16.63;50.96;99675.19;5074223;28;20583;-68
2023/10/08 01:32:10;;;;;;;7.27;5.67;;;;;;;16.52;51.30;99666.09;5074155;28;20355;-68
2023/10/08 01:34:38;;;;;;;8.60;6.13;;;;;;;16.43;51.99;99672.00;5074452;28;20263;-68
2023/10/08 01:37:08;;;;;;;11.50;6.90;;;;;;;16.34;52.49;99676.84;5073505;28;20200;-68
2023/10/08 01:39:39;;;;;;;9.10;6.30;;;;;;;16.31;52.65;99655.03;5074334;28;20667;-68
2023/10/08 01:42:15;;;;;;;10.33;6.57;;;;;;;16.25;52.66;99662.13;5074395;28;20200;-68
2023/10/08 01:44:41;;;;;;;8.20;6.80;;;;;;;16.14;53.42;99664.75;5074332;28;20192;-68
2023/10/08 01:47:11;;;;;;;8.33;5.87;;;;;;;16.01;53.67;99664.94;5074394;28;20261;-68
2023/10/08 01:49:39;;;;;;;8.13;7.10;;;;;;;15.92;53.89;99660.97;5073748;28;20223;-67
2023/10/08 01:52:12;;;;;;;9.93;6.13;;;;;;;15.89;54.24;99656.88;5073968;28;20283;-67
2023/10/08 01:54:40;;;;;;;10.60;6.20;;;;;;;15.77;54.44;99643.41;5074428;28;20199;-67
2023/10/08 01:57:09;;;;;;;9.73;6.00;;;;;;;15.86;54.43;99642.03;5074135;28;20203;-68
2023/10/08 01:59:37;;;;;;;8.50;5.80;;;;;;;15.69;54.82;99634.88;5067963;28;20337;-68
2023/10/08 02:02:05;;;;;;;6.90;5.13;;;;;;;15.68;55.06;99642.09;5054016;28;20212;-67
2023/10/08 02:04:35;;;;;;;9.37;5.37;;;;;;;15.63;54.77;99636.59;5063173;28;20730;-68
2023/10/08 02:07:03;;;;;;;9.60;5.23;;;;;;;15.70;54.75;99637.34;5072828;28;20309;-67
2023/10/08 02:09:30;;;;;;;9.90;5.37;;;;;;;15.65;54.21;99639.84;5072812;28;20695;-68
2023/10/08 02:11:58;;;;;;;6.77;4.83;;;;;;;15.68;53.92;99634.03;5073607;28;20254;-67
2023/10/08 02:14:25;;;;;;;7.70;4.50;;;;;;;15.86;53.11;99646.59;5073391;28;20663;-67
2023/10/08 02:16:56;;;;;;;7.30;5.00;;;;;;;16.02;52.59;99630.69;5073317;28;20293;-67
2023/10/08 02:19:26;;;;;;;9.00;5.07;;;;;;;16.13;52.65;99642.50;5073687;28;20184;-67
2023/10/08 02:21:54;;;;;;;5.67;4.73;;;;;;;16.23;52.15;99626.69;5073454;28;20180;-68
2023/10/08 02:24:23;;;;;;;11.07;4.80;;;;;;;16.32;51.61;99635.22;5073528;28;20283;-68
2023/10/08 02:26:51;;;;;;;5.53;4.07;;;;;;;16.49;50.63;99633.56;5073398;28;20200;-68
2023/10/08 02:29:19;;;;;;;6.97;5.33;;;;;;;16.68;49.14;99635.91;5073230;28;20307;-68
2023/10/08 02:31:47;;;;;;;7.37;6.13;;;;;;;16.77;47.94;99639.88;5073474;28;20328;-68
2023/10/08 02:34:14;;;;;;;11.97;6.83;;;;;;;16.85;47.22;99625.28;5073050;28;20581;-68
2023/10/08 02:36:41;;;;;;;14.57;8.53;;;;;;;16.92;46.46;99626.84;5072720;28;20671;-67
2023/10/08 02:39:16;;;;;;;16.10;7.97;;;;;;;16.94;46.83;99632.78;5073290;28;20254;-67
2023/10/08 02:41:45;;;;;;;13.20;8.10;;;;;;;17.02;46.92;99628.94;5073471;28;20190;-68
2023/10/08 02:44:13;;;;;;;13.77;7.83;;;;;;;17.00;46.93;99617.59;5073312;28;20203;-67
2023/10/08 02:46:42;;;;;;;11.93;7.10;;;;;;;17.07;46.81;99623.69;5072868;28;20192;-68
2023/10/08 02:49:11;;;;;;;9.73;6.60;;;;;;;17.10;46.95;99628.56;5073207;28;20214;-68
2023/10/08 02:51:40;;;;;;;9.10;5.83;;;;;;;17.17;46.70;99623.88;5073091;28;20444;-68
2023/10/08 02:54:16;;;;;;;8.33;5.43;;;;;;;17.13;46.70;99618.19;5072658;28;20196;-68
2023/10/08 02:56:44;;;;;;;5.80;4.90;;;;;;;17.05;46.92;99615.84;5072643;28;20245;-68
2023/10/08 02:59:12;;;;;;;7.17;4.97;;;;;;;17.15;47.07;99623.31;5072804;28;20617;-69
2023/10/08 03:01:40;;;;;;;5.60;5.07;;;;;;;17.13;46.91;99622.72;5072417;28;20194;-68
2023/10/08 03:04:17;;;;;;;6.30;4.97;;;;;;;17.10;46.95;99623.19;5072770;28;20277;-68
2023/10/08 03:06:44;;;;;;;6.50;4.70;;;;;;;17.16;47.03;99623.09;5072890;28;20262;-69
2023/10/08 03:09:13;;;;;;;8.23;5.17;;;;;;;17.12;46.76;99629.16;5072238;28;20195;-68
2023/10/08 03:11:46;;;;;;;11.33;5.23;;;;;;;17.13;46.93;99617.34;5072251;28;20191;-69
2023/10/08 03:14:21;;;;;;;4.50;4.10;;;;;;;16.97;46.77;99623.44;5072041;28;20273;-69
2023/10/08 03:16:49;;;;;;;5.83;4.30;;;;;;;16.92;46.19;99617.97;5071954;28;20228;-69
2023/10/08 03:19:19;;;;;;;10.67;5.20;;;;;;;17.00;45.53;99614.91;5071546;28;20576;-69
2023/10/08 03:21:50;;;;;;;13.70;5.77;;;;;;;17.11;44.65;99614.91;5072115;28;20184;-68
2023/10/08 03:24:38;;;;;;;15.80;6.23;;;;;;;17.26;43.92;99611.72;5072515;28;20263;-69
2023/10/08 03:27:06;;;;;;;10.40;6.10;;;;;;;17.34;43.45;99608.69;5072371;28;20184;-69
2023/10/08 03:29:40;;;;;;;11.17;5.97;;;;;;;17.50;42.88;99613.34;5071668;28;20220;-69
2023/10/08 03:32:12;;;;;;;7.80;5.50;;;;;;;17.59;42.96;99617.28;5071793;28;20177;-68
2023/10/08 03:34:43;;;;;;;5.67;4.97;;;;;;;17.61;42.95;99604.47;5072206;28;20184;-69
2023/10/08 03:37:19;;;;;;;13.23;5.17;;;;;;;17.67;43.14;99609.69;5071979;28;20188;-69
2023/10/08 03:40:00;;;;;;;9.93;5.33;;;;;;;17.55;43.07;99621.50;5072148;28;20188;-69
2023/10/08 03:42:30;;;;;;;8.63;5.20;;;;;;;17.69;42.64;99606.78;5071085;28;20184;-68
2023/10/08 03:44:57;;;;;;;11.07;5.97;;;;;;;17.81;42.26;99607.53;5072068;28;20196;-68
2023/10/08 03:47:26;;;;;;;11.50;5.87;;;;;;;17.81;41.84;99604.84;5072167;28;20215;-69
2023/10/08 03:49:54;;;;;;;12.03;6.67;;;;;;;17.83;41.52;99603.56;5071854;28;20247;-68
2023/10/08 03:52:23;;;;;;;11.27;5.93;;;;;;;17.78;41.93;99600.78;5071371;28;20238;-69
2023/10/08 03:55:04;;;;;;;6.70;5.50;;;;;;;17.80;41.77;99603.22;5071641;28;20209;-69
2023/10/08 03:57:42;;;;;;;5.77;4.80;;;;;;;17.78;41.92;99603.47;5070917;28;20192;-68
2023/10/08 04:00:13;;;;;;;10.23;4.53;;;;;;;17.81;41.94;99604.84;5051723;28;20616;-69
2023/10/08 04:02:41;;;;;;;8.03;5.30;;;;;;;17.82;42.35;99607.31;5051987;28;20185;-69
2023/10/08 04:05:19;;;;;;;4.97;4.37;;;;;;;17.83;42.43;99608.09;5066371;28;20217;-69
2023/10/08 04:10:49;;;;;;;8.63;4.57;;;;;;;17.73;42.76;99603.34;5071176;28;20219;-66
2023/10/08 04:13:16;;;;;;;4.93;4.03;;;;;;;17.76;42.55;99602.88;5071652;28;20192;-66
2023/10/08 04:15:43;;;;;;;4.33;3.93;;;;;;;17.73;42.63;99599.88;5071406;28;20193;-66
2023/10/08 04:18:10;;;;;;;5.73;4.13;;;;;;;17.64;42.73;99599.41;5071632;28;20223;-68
2023/10/08 04:20:39;;;;;;;6.53;4.13;;;;;;;17.77;42.55;99595.66;5071561;28;20262;-69
2023/10/08 04:23:13;;;;;;;4.00;3.60;;;;;;;17.79;42.16;99606.94;5071779;28;20289;-69
2023/10/08 04:25:41;;;;;;;4.23;3.90;;;;;;;17.65;42.42;99593.00;5071522;28;20184;-68
2023/10/08 04:28:13;;;;;;;4.10;3.80;;;;;;;17.58;42.19;99605.75;5071606;28;20196;-67
2023/10/08 04:30:41;;;;;;;4.60;3.63;;;;;;;17.52;42.28;99611.25;5074439;28;20209;-68
2023/10/08 04:33:12;;;;;;;6.70;4.17;;;;;;;17.58;42.01;99604.94;5075951;28;20253;-67
2023/10/08 04:35:47;;;;;;;6.73;3.80;;;;;;;17.53;42.10;99610.19;5075619;28;20187;-67
2023/10/08 04:38:18;;;;;;;6.57;3.80;;;;;;;17.40;42.33;99608.59;5075292;28;20233;-67
2023/10/08 04:40:48;;;;;;;5.90;3.63;;;;;;;17.40;42.33;99613.13;5075781;28;20196;-67
2023/10/08 04:43:19;;;;;;;6.53;3.63;;;;;;;17.44;42.22;99617.00;5075280;28;20187;-67
2023/10/08 04:45:49;;;;;;;5.07;3.93;;;;;;;17.45;42.34;99611.41;5075791;28;20192;-67
2023/10/08 04:48:20;;;;;;;7.73;3.97;;;;;;;17.48;42.00;99615.47;5075336;28;20286;-67
2023/10/08 04:50:57;;;;;;;10.20;3.87;;;;;;;17.61;41.61;99625.94;5074888;28;20212;-67
2023/10/08 04:53:31;;;;;;;7.10;3.70;;;;;;;17.65;41.41;99621.72;5074803;28;20214;-67
2023/10/08 04:56:02;;;;;;;7.17;3.47;;;;;;;17.87;40.95;99620.84;5075372;28;20187;-67
2023/10/08 04:58:33;;;;;;;5.67;3.60;;;;;;;18.24;40.23;99613.16;5075563;28;20193;-67
2023/10/08 05:01:17;;;;;;;3.67;3.20;;;;;;;18.48;38.82;99604.75;5074832;28;20208;-66
2023/10/08 05:03:56;;;;;;;6.27;3.47;;;;;;;18.86;38.42;99610.22;5072186;28;20273;-67
2023/10/08 05:09:23;;;;;;;7.67;3.77;;;;;;;19.89;35.40;99611.06;5109743;27;20882;-66
2023/10/08 05:12:10;;;;;;;3.97;3.40;;;;;;;20.19;35.00;99621.38;5109529;28;20208;-66
2023/10/08 05:14:45;;;;;;;3.83;3.37;;;;;;;20.40;34.20;99615.09;5109424;28;20187;-67
2023/10/08 05:17:21;;;;;;;5.03;3.10;;;;;;;20.53;33.80;99618.19;5109613;28;20280;-65
2023/10/08 05:19:56;;;;;;;4.03;3.13;;;;;;;20.76;33.25;99611.63;5109599;28;20182;-68
2023/10/08 05:22:43;;;;;;;4.90;3.80;;;;;;;21.20;35.23;99612.22;5108295;28;20178;-69
2023/10/08 05:25:35;;;;;;;5.20;3.30;;;;;;;21.59;31.51;99614.31;5105088;28;20657;-68
2023/10/08 05:28:09;;;;;;;7.07;3.53;;;;;;;21.79;32.07;99616.28;5107005;28;20268;-67
2023/10/08 05:30:41;;;;;;;4.43;3.20;;;;;;;21.94;31.66;99605.53;5108092;28;20202;-68
2023/10/08 05:35:50;;;;;;;5.40;3.73;;;;;;;22.23;30.56;99606.66;5106468;28;20191;-67
2023/10/08 05:38:22;;;;;;;9.77;3.50;;;;;;;22.44;30.54;99598.31;5104833;28;20748;-67
2023/10/08 05:41:27;;;;;;;5.93;2.97;;;;;;;22.91;31.21;99598.84;5107628;28;20185;-68
2023/10/08 05:44:13;;;;;;;5.77;3.23;;;;;;;23.25;29.50;99602.63;5105104;28;20571;-67
2023/10/08 05:46:47;;;;;;;6.77;3.00;;;;;;;23.46;29.33;99601.47;5106849;28;20212;-67
2023/10/08 05:49:38;;;;;;;6.87;3.10;;;;;;;23.58;28.82;99599.25;5107223;28;20202;-67
2023/10/08 05:55:14;;;;;;;6.33;4.03;;;;;;;23.83;27.82;99607.25;5104758;28;20829;-68
2023/10/08 05:57:51;;;;;;;9.13;3.00;;;;;;;23.95;28.01;99605.06;5106319;28;20195;-67
2023/10/08 06:00:46;;;;;;;9.50;3.40;;;;;;;24.12;26.83;99612.81;5107235;28;20218;-67
2023/10/08 06:03:32;;;;;;;6.53;2.87;;;;;;;24.51;26.37;99619.88;5107881;28;20187;-67
2023/10/08 06:08:51;;;;;;;4.37;3.30;;;;;;;24.67;26.39;99621.41;5100906;28;20222;-67
2023/10/08 06:11:30;;;;;;;4.27;3.13;;;;;;;25.02;26.36;99619.47;5106064;28;20647;-67
2023/10/08 06:14:00;;;;;;;6.00;3.33;;;;;;;25.52;26.29;99627.91;5102646;28;20211;-67
2023/10/08 06:16:41;;;;;;;7.73;3.60;;;;;;;25.57;28.18;99627.06;5107081;28;20195;-67
2023/10/08 06:19:09;;;;;;;8.17;3.47;;;;;;;26.00;25.71;99636.91;5101264;28;20189;-67
2023/10/08 06:21:36;;;;;;;3.03;2.83;;;;;;;26.34;25.00;99638.28;5092929;28;20707;-67
2023/10/08 06:24:08;;;;;;;3.70;3.30;;;;;;;26.82;25.19;99634.28;5093765;28;20202;-67
2023/10/08 06:26:38;;;;;;;5.40;3.07;;;;;;;27.29;24.33;99639.47;5094000;28;20214;-68
2023/10/08 06:29:18;;;;;;;6.97;3.30;;;;;;;27.69;25.10;99632.41;5094152;28;20211;-68
2023/10/08 06:31:51;;;;;;;6.80;3.60;;;;;;;27.93;24.34;99635.75;5092079;28;20195;-68
2023/10/08 06:34:21;;;;;;;2.90;2.70;;;;;;;28.28;25.51;99629.50;5090781;28;20188;-68
2023/10/08 06:36:50;;;;;;;6.43;3.67;;;;;;;28.22;23.82;99630.72;5094236;28;20222;-68
2023/10/08 06:39:25;;;;;;;4.00;3.30;;;;;;;27.95;23.88;99636.25;5091587;28;20183;-68
2023/10/08 06:41:53;;;;;;;8.70;3.57;;;;;;;28.06;23.78;99630.25;5093292;28;20199;-68
2023/10/08 06:44:22;;;;;;;13.47;3.77;;;;;;;27.84;25.16;99618.44;5093736;28;20195;-68
2023/10/08 06:46:52;;;;;;;5.73;3.83;;;;;;;27.82;24.79;99631.63;5090502;28;20194;-68
2023/10/08 06:49:20;;;;;;;4.63;4.23;;;;;;;27.74;25.24;99630.38;5093122;28;20204;-69
2023/10/08 06:51:48;;;;;;;24.70;5.23;;;;;;;27.62;24.72;99638.28;5093382;28;20195;-68
2023/10/08 06:54:17;;;;;;;5.50;4.00;;;;;;;27.70;26.31;99636.75;5093305;28;20202;-67
2023/10/08 06:56:46;;;;;;;6.87;5.90;;;;;;;27.17;24.74;99644.56;5073601;28;20196;-65
2023/10/08 06:59:13;;;;;;;9.13;6.97;;;;;;;27.12;24.59;99643.84;5093536;28;20233;-66
2023/10/08 07:01:45;;;;;;;13.43;7.20;;;;;;;26.89;25.44;99640.16;5093334;28;20188;-65
2023/10/08 07:04:13;;;;;;;60.00;10.50;;;;;;;26.46;25.09;99640.56;5093726;28;20206;-65
2023/10/08 07:06:40;;;;;;;21.83;8.90;;;;;;;26.26;24.73;99630.81;5093531;28;20256;-64
2023/10/08 07:09:13;;;;;;;14.07;8.87;;;;;;;26.20;24.88;99636.59;5093244;28;20227;-65
2023/10/08 07:11:45;;;;;;;15.27;9.27;;;;;;;26.31;24.61;99635.34;5093177;28;20262;-65
2023/10/08 07:14:13;;;;;;;16.60;8.67;;;;;;;26.33;24.61;99614.09;5093786;28;20210;-66
2023/10/08 07:16:42;;;;;;;20.40;9.00;;;;;;;26.39;24.19;99629.22;5093313;28;20728;-65
2023/10/08 07:19:17;;;;;;;29.60;8.83;;;;;;;26.11;24.48;99624.75;5093284;28;20187;-66
2023/10/08 07:21:45;;;;;;;12.93;8.73;;;;;;;26.32;24.26;99631.50;5091428;28;20183;-66
2023/10/08 07:24:15;;;;;;;15.57;8.93;;;;;;;26.34;24.10;99629.31;5093491;28;20241;-66
2023/10/08 07:26:46;;;;;;;17.27;8.67;;;;;;;26.28;24.16;99614.97;5092952;28;20221;-67
2023/10/08 07:29:17;;;;;;;21.10;7.00;;;;;;;26.33;23.48;99605.91;5093264;28;20211;-66
2023/10/08 07:31:48;;;;;;;18.43;6.37;;;;;;;26.55;22.82;99611.53;5091999;28;20262;-65
2023/10/08 07:34:18;;;;;;;11.00;5.60;;;;;;;26.72;23.14;99607.19;5092675;28;20253;-66
2023/10/08 07:36:46;;;;;;;20.57;5.40;;;;;;;26.80;23.08;99601.06;5093298;28;20240;-65
2023/10/08 07:39:24;;;;;;;9.03;4.47;;;;;;;26.96;23.28;99596.13;5092749;28;20191;-65
2023/10/08 07:41:51;;;;;;;19.67;4.83;;;;;;;26.93;23.15;99591.28;5092491;28;20182;-65
2023/10/08 07:44:21;;;;;;;45.33;5.63;;;;;;;26.82;23.84;99589.88;5092584;28;20192;-66
2023/10/08 07:46:49;;;;;;;20.90;5.10;;;;;;;26.91;23.42;99582.59;5092690;28;20218;-66
2023/10/08 07:49:16;;;;;;;33.73;5.50;;;;;;;27.36;23.28;99581.78;5092309;28;20245;-65
2023/10/08 07:51:50;;;;;;;11.20;3.80;;;;;;;27.43;22.63;99582.16;5092990;28;20201;-65
2023/10/08 07:54:19;;;;;;;18.00;4.67;;;;;;;27.22;22.97;99595.41;5092710;28;20183;-65
2023/10/08 07:56:47;;;;;;;152.77;14.57;;;;;;;27.11;23.15;99588.47;5091967;28;20255;-65
2023/10/08 07:59:16;;;;;;;11.10;4.67;;;;;;;27.11;23.04;99593.16;5092150;28;20200;-65
2023/10/08 08:01:43;;;;;;;29.17;4.73;;;;;;;27.03;23.52;99577.47;5090730;28;20199;-66
2023/10/08 08:04:21;;;;;;;24.13;5.27;;;;;;;27.00;23.08;99578.91;5090666;28;20245;-65
2023/10/08 08:06:50;;;;;;;16.83;4.30;;;;;;;27.11;23.42;99565.88;5090775;28;20194;-66
2023/10/08 08:09:19;;;;;;;10.17;4.70;;;;;;;27.39;22.94;99572.97;5089804;28;20899;-65
2023/10/08 08:11:46;;;;;;;13.70;4.73;;;;;;;27.42;22.90;99569.63;5090269;28;20184;-66
2023/10/08 08:14:16;;;;;;;51.93;7.57;;;;;;;27.35;22.77;99555.56;5090714;28;20233;-66
2023/10/08 08:16:46;;;;;;;18.00;5.03;;;;;;;27.50;22.76;99568.91;5088567;28;20179;-66
2023/10/08 08:19:15;;;;;;;17.33;5.57;;;;;;;27.43;23.01;99557.59;5090676;28;20206;-65
2023/10/08 08:21:45;;;;;;;15.33;4.90;;;;;;;27.46;22.63;99557.00;5088259;28;20183;-66
2023/10/08 08:24:12;;;;;;;16.30;5.00;;;;;;;27.53;22.71;99563.69;5091492;28;20252;-65
2023/10/08 08:26:44;;;;;;;11.53;5.07;;;;;;;27.59;22.63;99558.91;5091339;28;20666;-66
2023/10/08 08:29:15;;;;;;;8.83;4.90;;;;;;;27.80;22.51;99555.44;5091910;28;20226;-66
2023/10/08 08:31:46;;;;;;;11.17;5.53;;;;;;;27.78;22.33;99559.59;5091150;28;20631;-66
2023/10/08 08:34:19;;;;;;;9.30;4.67;;;;;;;27.92;22.20;99554.91;5091165;28;20184;-66
2023/10/08 08:36:48;;;;;;;21.33;5.37;;;;;;;27.74;22.42;99542.19;5091629;28;20241;-65
2023/10/08 08:39:28;;;;;;;12.47;4.73;;;;;;;27.86;22.12;99550.69;5088697;28;20199;-66
2023/10/08 08:42:00;;;;;;;18.83;5.87;;;;;;;28.06;22.24;99555.69;5091106;28;20179;-67
2023/10/08 08:44:30;;;;;;;8.10;5.00;;;;;;;28.36;22.54;99549.50;5087466;28;20248;-67
2023/10/08 08:46:59;;;;;;;17.23;5.87;;;;;;;28.37;21.82;99541.00;5088040;28;20624;-67
2023/10/08 08:49:29;;;;;;;8.30;5.40;;;;;;;28.59;21.76;99534.75;5090286;28;20280;-67
2023/10/08 08:52:00;;;;;;;10.37;4.83;;;;;;;28.55;21.69;99540.00;5077784;28;20206;-67
2023/10/08 08:54:30;;;;;;;12.57;5.40;;;;;;;28.60;21.93;99533.63;5091735;28;20184;-67
2023/10/08 08:56:57;;;;;;;6.27;5.60;;;;;;;28.77;22.02;99541.91;5090572;28;20591;-67
2023/10/08 08:59:25;;;;;;;9.17;5.70;;;;;;;28.98;21.54;99529.31;5090912;28;20285;-66
2023/10/08 09:01:54;;;;;;;7.87;4.90;;;;;;;29.10;21.77;99524.06;5091400;28;20213;-66
2023/10/08 09:04:30;;;;;;;15.13;5.37;;;;;;;29.26;21.33;99519.00;5090873;28;20191;-65
2023/10/08 09:06:57;;;;;;;11.27;5.43;;;;;;;29.08;21.55;99504.44;5091065;28;20270;-64
2023/10/08 09:09:25;;;;;;;13.00;4.90;;;;;;;29.20;21.65;99512.84;5090972;28;20260;-65
2023/10/08 09:11:55;;;;;;;13.32;5.38;;;;;;;29.26;21.15;99508.84;5091365;28;20697;-67
2023/10/08 09:14:22;;;;;;;27.50;6.30;;;;;;;29.32;21.19;99510.31;5091651;28;20187;-66
2023/10/08 09:16:49;;;;;;;17.93;4.77;;;;;;;29.13;21.61;99504.28;5091568;28;20203;-65
2023/10/08 09:19:18;;;;;;;19.67;4.13;;;;;;;29.10;21.57;99510.41;5091736;28;20293;-66
2023/10/08 09:22:00;;;;;;;7.20;3.80;;;;;;;29.49;21.35;99491.19;5090382;28;20274;-66
2023/10/08 09:24:27;;;;;;;25.73;5.57;;;;;;;29.38;20.88;99500.81;5089654;28;20179;-67
2023/10/08 09:26:55;;;;;;;15.07;5.40;;;;;;;29.36;21.25;99486.66;5090797;28;20191;-66
2023/10/08 09:29:23;;;;;;;12.23;4.80;;;;;;;29.39;21.18;99486.00;5091316;28;20601;-66
2023/10/08 09:31:55;;;;;;;9.00;4.50;;;;;;;29.55;21.08;99489.13;5091549;28;20192;-67
2023/10/08 09:34:22;;;;;;;11.40;4.63;;;;;;;29.81;21.49;99485.31;5090450;28;20233;-66
2023/10/08 09:36:51;;;;;;;10.67;3.93;;;;;;;30.05;20.90;99482.06;5091281;28;20191;-66
2023/10/08 09:39:23;;;;;;;7.53;4.37;;;;;;;29.97;21.36;99480.13;5091527;28;20286;-66
2023/10/08 09:41:51;;;;;;;7.13;4.07;;;;;;;30.21;21.12;99474.97;5091367;28;20241;-66
2023/10/08 09:44:20;;;;;;;17.30;4.70;;;;;;;30.33;21.34;99475.91;5091112;28;20188;-66
2023/10/08 09:46:53;;;;;;;81.53;8.03;;;;;;;30.06;21.24;99462.56;5091579;28;20195;-66
2023/10/08 09:49:29;;;;;;;11.43;4.63;;;;;;;30.16;21.42;99456.75;5091176;28;20207;-66
2023/10/08 09:51:58;;;;;;;11.53;3.90;;;;;;;30.20;21.32;99459.66;5091712;28;20191;-66
2023/10/08 09:54:31;;;;;;;6.47;3.83;;;;;;;30.47;20.94;99457.34;5092151;28;20225;-66
2023/10/08 09:57:00;;;;;;;12.70;4.43;;;;;;;30.61;20.79;99460.69;5095260;28;20210;-66
2023/10/08 09:59:28;;;;;;;10.83;4.17;;;;;;;30.30;21.26;99462.06;5094305;28;20199;-67
2023/10/08 10:01:59;;;;;;;12.83;4.20;;;;;;;30.43;21.73;99450.91;5094540;28;20236;-67
2023/10/08 10:04:28;;;;;;;10.70;3.97;;;;;;;30.58;21.49;99446.81;5094769;28;20647;-67
2023/10/08 10:06:58;;;;;;;17.73;4.57;;;;;;;30.29;21.21;99450.28;5094436;28;20191;-67
2023/10/08 10:09:26;;;;;;;14.60;4.33;;;;;;;30.37;21.29;99445.94;5093841;28;20744;-68
2023/10/08 10:11:56;;;;;;;14.83;3.57;;;;;;;30.28;21.56;99421.28;5094809;28;20192;-67
2023/10/08 10:14:24;;;;;;;14.70;4.50;;;;;;;30.50;21.62;99437.47;5094365;28;20199;-66
2023/10/08 10:17:10;;;;;;;6.83;4.13;;;;;;;30.82;21.31;99428.66;5094561;28;20194;-66
2023/10/08 10:19:37;;;;;;;24.07;4.53;;;;;;;30.57;21.70;99428.75;5094679;28;20187;-66
2023/10/08 10:22:06;;;;;;;15.33;5.23;;;;;;;30.39;21.44;99419.78;5093626;28;20187;-66
2023/10/08 10:24:35;;;;;;;18.10;4.30;;;;;;;30.45;21.74;99421.22;5094073;28;20622;-66
2023/10/08 10:27:12;;;;;;;30.03;5.77;;;;;;;30.56;21.43;99421.66;5099596;28;20253;-66
2023/10/08 10:29:39;;;;;;;31.53;5.70;;;;;;;30.57;21.28;99424.06;5094093;28;20268;-67
2023/10/08 10:32:06;;;;;;;18.67;4.47;;;;;;;30.49;21.20;99416.69;5094601;28;20608;-67
2023/10/08 10:34:34;;;;;;;13.10;5.10;;;;;;;30.36;21.49;99403.19;5093994;28;20195;-65
2023/10/08 10:37:08;;;;;;;5.77;4.20;;;;;;;30.46;21.17;99402.84;5093867;28;20195;-65
2023/10/08 10:39:39;;;;;;;7.97;3.97;;;;;;;30.30;21.74;99388.06;5093756;28;20665;-66
2023/10/08 10:42:20;;;;;;;21.10;4.83;;;;;;;29.96;22.21;99383.44;5094551;28;20186;-66
2023/10/08 10:44:49;;;;;;;17.13;4.67;;;;;;;30.12;22.78;99383.69;5093903;28;20181;-66
2023/10/08 10:47:42;;;;;;;9.20;4.03;;;;;;;30.18;22.31;99374.22;5094168;28;20640;-65
2023/10/08 10:50:26;;;;;;;26.03;5.30;;;;;;;30.11;22.81;99374.69;5094109;28;20211;-65
2023/10/08 10:52:53;;;;;;;8.40;4.27;;;;;;;30.05;22.75;99367.75;5094132;28;20195;-65
2023/10/08 10:55:22;;;;;;;10.70;4.03;;;;;;;30.38;22.50;99373.50;5093339;28;20191;-65
2023/10/08 10:57:56;;;;;;;10.07;3.50;;;;;;;30.51;22.03;99370.56;5093751;28;20191;-66
2023/10/08 11:03:16;;;;;;;7.73;4.23;;;;;;;30.71;22.48;99367.09;5075749;28;20238;-66
2023/10/08 11:05:48;;;;;;;17.87;3.60;;;;;;;30.80;21.93;99367.84;5094018;28;20201;-68
2023/10/08 11:08:18;;;;;;;13.40;4.30;;;;;;;30.81;22.39;99358.47;5093460;28;20227;-68
2023/10/08 11:10:50;;;;;;;22.47;4.93;;;;;;;30.86;22.43;99355.53;5093328;28;20307;-66
2023/10/08 11:13:19;;;;;;;10.33;4.63;;;;;;;30.83;23.56;99347.19;5093207;28;20191;-67
2023/10/08 11:15:49;;;;;;;27.83;5.20;;;;;;;30.65;22.92;99351.91;5092258;28;20443;-66
2023/10/08 11:18:17;;;;;;;6.90;3.37;;;;;;;30.88;22.45;99356.03;5093371;28;20227;-66
2023/10/08 11:20:45;;;;;;;14.57;3.50;;;;;;;30.97;22.46;99348.53;5090442;28;20196;-66
2023/10/08 11:23:21;;;;;;;13.50;4.00;;;;;;;30.78;22.28;99352.88;5092311;28;20741;-66
2023/10/08 11:25:59;;;;;;;11.47;3.90;;;;;;;30.52;22.62;99344.72;5092452;28;20262;-67
2023/10/08 11:28:27;;;;;;;7.73;3.47;;;;;;;30.44;23.06;99344.75;5091069;28;20201;-66
2023/10/08 11:30:54;;;;;;;10.03;3.43;;;;;;;30.47;23.19;99331.22;5089935;28;20272;-66
2023/10/08 11:33:21;;;;;;;11.60;3.67;;;;;;;30.33;22.66;99325.13;5090836;28;20199;-66
2023/10/08 11:36:02;;;;;;;10.37;3.50;;;;;;;30.14;23.32;99321.19;5091879;28;20187;-66
2023/10/08 11:38:39;;;;;;;10.80;3.73;;;;;;;30.02;23.20;99312.81;5090858;28;20179;-66
2023/10/08 11:41:20;;;;;;;37.63;4.53;;;;;;;29.95;23.59;99318.81;5090455;28;20183;-66
2023/10/08 11:43:53;;;;;;;13.73;4.00;;;;;;;29.98;23.64;99317.34;5090585;28;20186;-66
2023/10/08 11:46:21;;;;;;;15.90;4.07;;;;;;;29.92;23.16;99303.03;5089717;28;20207;-66
2023/10/08 11:48:48;;;;;;;14.77;3.83;;;;;;;30.03;24.00;99311.69;5091782;28;20187;-66
2023/10/08 11:51:17;;;;;;;15.53;4.10;;;;;;;30.08;24.04;99311.53;5091700;28;20260;-66
2023/10/08 11:53:44;;;;;;;9.43;3.50;;;;;;;30.24;23.87;99313.41;5091564;28;20201;-65
2023/10/08 11:56:13;;;;;;;17.53;4.10;;;;;;;30.09;23.32;99308.44;5092570;28;20326;-65
2023/10/08 11:58:44;;;;;;;7.40;3.60;;;;;;;30.16;23.46;99303.28;5092271;28;20183;-66
2023/10/08 12:01:15;;;;;;;9.50;3.50;;;;;;;30.25;23.56;99306.78;5092236;28;20249;-65
2023/10/08 12:03:43;;;;;;;16.33;3.30;;;;;;;30.26;23.20;99297.47;5091934;28;20187;-66
2023/10/08 12:06:15;;;;;;;7.47;3.47;;;;;;;30.30;22.97;99292.94;5092465;28;20201;-66